sensor_id;sensor_type;location;lat;lon;timestamp;pressure;altitude;pressure_sealevel;temperature;humidity
22582;BME280;47125;48.542;9.052;2023-05-12T00:07:51;95719.78;;;12.72;84.01
22582;BME280;47125;48.542;9.052;2023-05-12T00:17:54;95712.03;;;12.70;84.36
22582;BME280;47125;48.542;9.052;2023-05-12T00:27:58;95710.69;;;12.73;84.06
22582;BME280;47125;48.542;9.052;2023-05-12T00:38:01;95713.31;;;12.68;83.57
22582;BME280;47125;48.542;9.052;2023-05-12T00:48:05;95711.97;;;12.65;83.58
22582;BME280;47125;48.542;9.052;2023-05-12T00:58:08;95708.22;;;12.61;83.84
22582;BME280;47125;48.542;9.052;2023-05-12T01:08:12;95708.44;;;12.60;83.77
22582;BME280;47125;48.542;9.052;2023-05-12T01:18:14;95702.28;;;12.59;83.92
22582;BME280;47125;48.542;9.052;2023-05-12T01:28:22;95703.09;;;12.60;83.66
22582;BME280;47125;48.542;9.052;2023-05-12T01:38:25;95699.34;;;12.61;84.24
22582;BME280;47125;48.542;9.052;2023-05-12T01:48:29;95694.53;;;12.63;84.40
22582;BME280;47125;48.542;9.052;2023-05-12T01:58:31;95699.38;;;12.66;84.55
22582;BME280;47125;48.542;9.052;2023-05-12T02:08:35;95699.91;;;12.63;85.21
22582;BME280;47125;48.542;9.052;2023-05-12T02:18:38;95705.28;;;12.68;85.11
22582;BME280;47125;48.542;9.052;2023-05-12T02:28:42;95702.38;;;12.69;84.30
22582;BME280;47125;48.542;9.052;2023-05-12T02:38:44;95705.00;;;12.64;84.28
22582;BME280;47125;48.542;9.052;2023-05-12T02:48:48;95688.66;;;12.61;85.13
22582;BME280;47125;48.542;9.052;2023-05-12T02:58:50;95700.72;;;12.63;84.02
22582;BME280;47125;48.542;9.052;2023-05-12T03:08:55;95692.06;;;12.56;85.20
22582;BME280;47125;48.542;9.052;2023-05-12T03:18:57;95692.06;;;12.56;84.79
22582;BME280;47125;48.542;9.052;2023-05-12T03:29:01;95699.28;;;12.51;85.40
22582;BME280;47125;48.542;9.052;2023-05-12T03:39:03;95690.22;;;12.57;85.41
22582;BME280;47125;48.542;9.052;2023-05-12T03:49:10;95687.56;;;12.62;85.67
22582;BME280;47125;48.542;9.052;2023-05-12T03:59:12;95687.03;;;12.60;85.15
22582;BME280;47125;48.542;9.052;2023-05-12T04:09:17;95693.94;;;12.56;85.21
22582;BME280;47125;48.542;9.052;2023-05-12T04:19:21;95689.66;;;12.55;85.44
22582;BME280;47125;48.542;9.052;2023-05-12T04:29:25;95690.41;;;12.45;85.51
22582;BME280;47125;48.542;9.052;2023-05-12T04:39:27;95699.34;;;12.61;85.31
22582;BME280;47125;48.542;9.052;2023-05-12T04:49:31;95703.09;;;12.60;85.14
22582;BME280;47125;48.542;9.052;2023-05-12T04:59:34;95718.13;;;12.66;85.64
22582;BME280;47125;48.542;9.052;2023-05-12T05:09:38;95719.66;;;12.52;85.61
22582;BME280;47125;48.542;9.052;2023-05-12T05:19:40;95718.06;;;12.56;85.63
22582;BME280;47125;48.542;9.052;2023-05-12T05:30:00;95728.09;;;12.39;86.43
22582;BME280;47125;48.542;9.052;2023-05-12T05:40:03;95734.47;;;12.33;86.27
22582;BME280;47125;48.542;9.052;2023-05-12T05:50:08;95738.69;;;12.55;85.04
22582;BME280;47125;48.542;9.052;2023-05-12T06:00:11;95743.59;;;12.68;84.97
22582;BME280;47125;48.542;9.052;2023-05-12T06:10:15;95743.38;;;12.70;85.35
22582;BME280;47125;48.542;9.052;2023-05-12T06:20:18;95753.75;;;12.98;85.30
22582;BME280;47125;48.542;9.052;2023-05-12T06:30:25;95753.84;;;13.08;85.15
22582;BME280;47125;48.542;9.052;2023-05-12T06:40:28;95756.09;;;13.27;84.17
22582;BME280;47125;48.542;9.052;2023-05-12T06:50:31;95758.81;;;13.32;82.90
22582;BME280;47125;48.542;9.052;2023-05-12T07:00:34;95758.13;;;13.51;83.18
22582;BME280;47125;48.542;9.052;2023-05-12T07:10:38;95758.44;;;13.60;80.99
22582;BME280;47125;48.542;9.052;2023-05-12T07:20:40;95764.16;;;13.78;81.24
22582;BME280;47125;48.542;9.052;2023-05-12T07:30:44;95762.81;;;13.81;78.13
22582;BME280;47125;48.542;9.052;2023-05-12T07:40:47;95756.44;;;14.02;78.69
22582;BME280;47125;48.542;9.052;2023-05-12T07:50:51;95761.03;;;14.17;78.74
22582;BME280;47125;48.542;9.052;2023-05-12T08:00:53;95755.97;;;14.25;77.37
22582;BME280;47125;48.542;9.052;2023-05-12T08:10:59;95756.50;;;14.22;76.43
22582;BME280;47125;48.542;9.052;2023-05-12T08:21:01;95755.44;;;14.28;77.65
22582;BME280;47125;48.542;9.052;2023-05-12T08:31:05;95764.88;;;14.41;76.28
22582;BME280;47125;48.542;9.052;2023-05-12T08:41:11;95765.69;;;14.47;76.08
22582;BME280;47125;48.542;9.052;2023-05-12T08:51:17;95762.47;;;14.50;75.86
22582;BME280;47125;48.542;9.052;2023-05-12T09:01:20;95757.09;;;14.55;77.41
22582;BME280;47125;48.542;9.052;2023-05-12T09:11:24;95773.22;;;14.70;76.42
22582;BME280;47125;48.542;9.052;2023-05-12T09:21:27;95770.81;;;14.73;75.36
22582;BME280;47125;48.542;9.052;2023-05-12T09:31:31;95769.22;;;14.93;76.00
22582;BME280;47125;48.542;9.052;2023-05-12T09:41:34;95764.06;;;15.21;74.54
22582;BME280;47125;48.542;9.052;2023-05-12T09:51:38;95766.75;;;15.31;72.16
22582;BME280;47125;48.542;9.052;2023-05-12T10:01:41;95765.09;;;15.51;67.45
22582;BME280;47125;48.542;9.052;2023-05-12T10:11:45;95758.03;;;15.80;70.02
22582;BME280;47125;48.542;9.052;2023-05-12T10:21:47;95756.31;;;15.99;65.79
22582;BME280;47125;48.542;9.052;2023-05-12T10:31:52;95750.66;;;16.01;62.90
22582;BME280;47125;48.542;9.052;2023-05-12T10:41:59;95749.34;;;15.98;68.03
22582;BME280;47125;48.542;9.052;2023-05-12T10:52:03;95754.19;;;15.91;66.10
22582;BME280;47125;48.542;9.052;2023-05-12T11:02:12;95755.22;;;16.05;66.75
22582;BME280;47125;48.542;9.052;2023-05-12T11:12:18;95759.63;;;15.81;68.87
22582;BME280;47125;48.542;9.052;2023-05-12T11:22:22;95766.69;;;15.67;68.80
22582;BME280;47125;48.542;9.052;2023-05-12T11:32:26;95766.41;;;15.68;68.25
22582;BME280;47125;48.542;9.052;2023-05-12T11:42:29;95773.94;;;15.66;70.79
22582;BME280;47125;48.542;9.052;2023-05-12T11:52:33;95775.78;;;15.81;72.75
22582;BME280;47125;48.542;9.052;2023-05-12T12:02:36;95774.84;;;16.11;73.07
22582;BME280;47125;48.542;9.052;2023-05-12T12:12:41;95776.81;;;16.49;70.12
22582;BME280;47125;48.542;9.052;2023-05-12T12:22:44;95795.66;;;15.90;72.14
22582;BME280;47125;48.542;9.052;2023-05-12T12:32:47;95797.41;;;15.51;77.61
22582;BME280;47125;48.542;9.052;2023-05-12T12:42:52;95803.88;;;15.55;81.19
22582;BME280;47125;48.542;9.052;2023-05-12T12:52:56;95808.66;;;15.83;81.78
22582;BME280;47125;48.542;9.052;2023-05-12T13:02:58;95807.16;;;16.11;83.17
22582;BME280;47125;48.542;9.052;2023-05-12T13:13:02;95812.53;;;16.21;85.35
22582;BME280;47125;48.542;9.052;2023-05-12T13:23:05;95812.06;;;15.98;81.62
22582;BME280;47125;48.542;9.052;2023-05-12T13:33:09;95814.53;;;15.95;80.41
22582;BME280;47125;48.542;9.052;2023-05-12T13:43:12;95812.38;;;15.87;79.40
22582;BME280;47125;48.542;9.052;2023-05-12T13:53:16;95805.72;;;15.59;83.36
22582;BME280;47125;48.542;9.052;2023-05-12T14:03:18;95811.09;;;15.69;85.48
22582;BME280;47125;48.542;9.052;2023-05-12T14:13:23;95812.66;;;15.85;83.40
22582;BME280;47125;48.542;9.052;2023-05-12T14:23:26;95812.94;;;15.89;84.04
22582;BME280;47125;48.542;9.052;2023-05-12T14:33:30;95807.03;;;15.77;85.24
22582;BME280;47125;48.542;9.052;2023-05-12T14:43:32;95802.75;;;15.71;82.25
22582;BME280;47125;48.542;9.052;2023-05-12T14:53:36;95794.09;;;15.79;84.25
22582;BME280;47125;48.542;9.052;2023-05-12T15:03:39;95805.97;;;15.73;83.83
22582;BME280;47125;48.542;9.052;2023-05-12T15:13:43;95804.63;;;15.70;85.19
22582;BME280;47125;48.542;9.052;2023-05-12T15:23:45;95809.78;;;15.62;83.53
22582;BME280;47125;48.542;9.052;2023-05-12T15:33:49;95803.59;;;15.51;82.19
22582;BME280;47125;48.542;9.052;2023-05-12T15:43:51;95809.50;;;15.58;83.68
22582;BME280;47125;48.542;9.052;2023-05-12T15:53:55;95801.16;;;15.60;81.79
22582;BME280;47125;48.542;9.052;2023-05-12T16:03:58;95811.41;;;15.48;81.46
22582;BME280;47125;48.542;9.052;2023-05-12T16:14:02;95815.09;;;15.82;81.43
22582;BME280;47125;48.542;9.052;2023-05-12T16:24:05;95807.59;;;15.74;78.70
22582;BME280;47125;48.542;9.052;2023-05-12T16:34:10;95803.03;;;15.64;79.07
22582;BME280;47125;48.542;9.052;2023-05-12T16:44:12;95798.47;;;15.29;78.45
22582;BME280;47125;48.542;9.052;2023-05-12T16:54:17;95799.31;;;15.35;78.44
22582;BME280;47125;48.542;9.052;2023-05-12T17:04:19;95807.34;;;15.45;78.56
22582;BME280;47125;48.542;9.052;2023-05-12T17:14:23;95805.22;;;15.32;78.25
22582;BME280;47125;48.542;9.052;2023-05-12T17:24:25;95821.38;;;15.22;77.56
22582;BME280;47125;48.542;9.052;2023-05-12T17:34:29;95827.56;;;14.92;77.15
22582;BME280;47125;48.542;9.052;2023-05-12T17:44:32;95838.03;;;14.88;77.35
22582;BME280;47125;48.542;9.052;2023-05-12T17:54:35;95850.91;;;14.61;77.55
22582;BME280;47125;48.542;9.052;2023-05-12T18:04:38;95848.28;;;14.86;78.12
22582;BME280;47125;48.542;9.052;2023-05-12T18:14:42;95864.91;;;14.78;78.23
22582;BME280;47125;48.542;9.052;2023-05-12T18:24:44;95873.47;;;14.50;79.13
22582;BME280;47125;48.542;9.052;2023-05-12T18:34:48;95870.44;;;14.37;78.33
22582;BME280;47125;48.542;9.052;2023-05-12T18:44:50;95870.47;;;14.47;78.77
22582;BME280;47125;48.542;9.052;2023-05-12T18:54:55;95884.69;;;14.37;79.02
22582;BME280;47125;48.542;9.052;2023-05-12T19:04:57;95902.31;;;14.18;81.19
22582;BME280;47125;48.542;9.052;2023-05-12T19:15:01;95904.31;;;14.43;79.98
22582;BME280;47125;48.542;9.052;2023-05-12T19:25:04;95914.00;;;14.44;79.97
22582;BME280;47125;48.542;9.052;2023-05-12T19:35:08;95916.81;;;14.22;80.14
22582;BME280;47125;48.542;9.052;2023-05-12T19:45:12;95917.22;;;14.36;78.92
22582;BME280;47125;48.542;9.052;2023-05-12T19:55:17;95927.06;;;14.30;79.36
22582;BME280;47125;48.542;9.052;2023-05-12T20:05:20;95932.66;;;14.18;79.22
22582;BME280;47125;48.542;9.052;2023-05-12T20:15:24;95931.81;;;14.13;80.12
22582;BME280;47125;48.542;9.052;2023-05-12T20:25:26;95946.59;;;14.10;79.32
22582;BME280;47125;48.542;9.052;2023-05-12T20:35:32;95957.94;;;14.22;79.39
22582;BME280;47125;48.542;9.052;2023-05-12T20:45:35;95955.78;;;14.24;79.23
22582;BME280;47125;48.542;9.052;2023-05-12T20:55:39;95951.41;;;14.08;79.68
22582;BME280;47125;48.542;9.052;2023-05-12T21:05:43;95956.41;;;13.95;79.37
22582;BME280;47125;48.542;9.052;2023-05-12T21:15:49;95960.00;;;14.10;79.23
22582;BME280;47125;48.542;9.052;2023-05-12T21:25:52;95955.97;;;14.08;78.87
22582;BME280;47125;48.542;9.052;2023-05-12T21:35:56;95965.03;;;13.97;78.77
22582;BME280;47125;48.542;9.052;2023-05-12T21:46:00;95970.97;;;14.04;78.09
22582;BME280;47125;48.542;9.052;2023-05-12T21:56:04;95969.00;;;13.89;78.09
22582;BME280;47125;48.542;9.052;2023-05-12T22:06:07;95967.13;;;13.85;77.63
22582;BME280;47125;48.542;9.052;2023-05-12T22:16:10;95972.50;;;13.90;78.05
22582;BME280;47125;48.542;9.052;2023-05-12T22:26:13;95970.53;;;13.75;78.88
22582;BME280;47125;48.542;9.052;2023-05-12T22:36:17;95975.94;;;13.85;77.96
22582;BME280;47125;48.542;9.052;2023-05-12T22:46:20;95973.09;;;13.60;77.76
22582;BME280;47125;48.542;9.052;2023-05-12T22:56:24;95972.03;;;13.34;78.73
22582;BME280;47125;48.542;9.052;2023-05-12T23:06:26;95969.63;;;13.33;78.54
22582;BME280;47125;48.542;9.052;2023-05-12T23:16:30;95964.44;;;13.53;77.31
22582;BME280;47125;48.542;9.052;2023-05-12T23:26:32;95979.13;;;13.45;77.81
22582;BME280;47125;48.542;9.052;2023-05-12T23:36:36;95967.56;;;13.40;76.99
22582;BME280;47125;48.542;9.052;2023-05-12T23:46:39;95957.59;;;13.35;77.48
22582;BME280;47125;48.542;9.052;2023-05-12T23:56:43;95957.25;;;13.27;78.00
